createdAt,value
2018-03-07T00:01:02.824Z,89.80
2018-03-07T00:03:30.327Z,89.80
2018-03-07T00:05:57.834Z,90.00
2018-03-07T00:08:25.332Z,89.80
2018-03-07T00:10:52.900Z,89.50
2018-03-07T00:13:20.415Z,89.60
2018-03-07T00:15:47.914Z,89.80
2018-03-07T00:18:15.416Z,90.20
2018-03-07T00:20:42.903Z,90.70
2018-03-07T00:23:10.421Z,90.90
2018-03-07T00:25:37.910Z,90.50
2018-03-07T00:28:05.408Z,90.90
2018-03-07T00:30:32.915Z,91.20
2018-03-07T00:33:00.407Z,90.60
2018-03-07T00:35:27.903Z,90.40
2018-03-07T00:37:55.411Z,90.20
2018-03-07T00:40:22.915Z,89.90
2018-03-07T00:42:50.800Z,90.50
2018-03-07T00:45:18.298Z,90.50
2018-03-07T00:47:46.227Z,90.40
2018-03-07T00:50:13.713Z,90.40
2018-03-07T00:52:41.217Z,90.50
2018-03-07T00:55:09.092Z,90.70
2018-03-07T00:57:36.579Z,90.70
2018-03-07T01:00:04.070Z,90.70
2018-03-07T01:02:31.551Z,90.80
2018-03-07T01:04:59.438Z,90.90
2018-03-07T01:07:26.925Z,90.90
2018-03-07T01:09:54.432Z,91.00
2018-03-07T01:12:22.315Z,91.30
2018-03-07T01:14:49.799Z,91.30
2018-03-07T01:17:17.336Z,91.60
2018-03-07T01:19:44.832Z,91.40
2018-03-07T01:22:12.355Z,91.20
2018-03-07T01:24:39.844Z,91.00
2018-03-07T01:27:07.378Z,91.70
2018-03-07T01:29:35.647Z,92.00
2018-03-07T01:32:03.173Z,91.90
2018-03-07T01:34:30.678Z,92.10
2018-03-07T01:36:58.169Z,92.20
2018-03-07T01:39:25.683Z,92.10
2018-03-07T01:41:53.174Z,92.20
2018-03-07T01:44:20.679Z,92.70
2018-03-07T01:46:48.561Z,92.40
2018-03-07T01:49:16.059Z,92.40
2018-03-07T01:51:55.553Z,91.80
2018-03-07T01:54:23.038Z,92.10
2018-03-07T01:56:50.535Z,92.30
2018-03-07T01:59:18.453Z,91.70
2018-03-07T02:01:45.978Z,91.70
2018-03-07T02:04:13.508Z,91.60
2018-03-07T02:06:41.407Z,92.10
2018-03-07T02:09:08.959Z,92.10
2018-03-07T02:11:36.468Z,91.80
2018-03-07T02:14:03.955Z,92.20
2018-03-07T02:16:31.839Z,92.10
2018-03-07T02:18:59.363Z,92.10
2018-03-07T02:21:27.687Z,91.80
2018-03-07T02:23:55.190Z,91.70
2018-03-07T02:26:22.690Z,91.70
2018-03-07T02:28:50.168Z,91.80
2018-03-07T02:31:17.667Z,91.90
2018-03-07T02:33:45.167Z,91.80
2018-03-07T02:36:24.541Z,91.70
2018-03-07T02:38:52.048Z,91.70
2018-03-07T02:41:19.543Z,91.70
2018-03-07T02:43:47.052Z,91.50
2018-03-07T02:46:14.545Z,91.40
2018-03-07T02:48:42.066Z,91.50
2018-03-07T02:51:09.972Z,91.40
2018-03-07T02:53:37.457Z,91.40
2018-03-07T02:56:05.698Z,91.30
2018-03-07T02:58:33.566Z,91.20
2018-03-07T03:01:01.051Z,91.30
2018-03-07T03:03:28.562Z,91.20
2018-03-07T03:05:56.059Z,91.20
2018-03-07T03:08:23.560Z,91.10
2018-03-07T03:10:51.457Z,90.70
2018-03-07T03:13:18.949Z,90.70
2018-03-07T03:15:46.434Z,90.90
2018-03-07T03:18:14.343Z,90.70
2018-03-07T03:20:41.835Z,90.70
2018-03-07T03:23:09.323Z,90.50
2018-03-07T03:25:37.222Z,90.50
2018-03-07T03:28:04.712Z,90.50
2018-03-07T03:30:32.201Z,90.60
2018-03-07T03:33:00.096Z,90.20
2018-03-07T03:35:27.620Z,90.10
2018-03-07T03:37:55.499Z,89.80
2018-03-07T03:40:22.995Z,89.80
2018-03-07T03:42:50.494Z,90.20
2018-03-07T03:45:17.979Z,90.00
2018-03-07T03:47:45.490Z,90.10
2018-03-07T03:50:13.004Z,90.20
2018-03-07T03:52:40.496Z,90.20
2018-03-07T03:55:07.976Z,90.10
2018-03-07T03:57:35.499Z,90.10
2018-03-07T04:00:02.987Z,90.10
2018-03-07T04:02:30.495Z,89.90
2018-03-07T04:04:58.013Z,89.90
2018-03-07T04:07:25.900Z,89.80
2018-03-07T04:09:53.403Z,89.80
2018-03-07T04:12:20.908Z,89.90
2018-03-07T04:14:48.416Z,90.10
2018-03-07T04:17:15.902Z,90.00
2018-03-07T04:19:43.837Z,90.10
2018-03-07T04:22:11.314Z,90.10
2018-03-07T04:24:38.825Z,90.20
2018-03-07T04:27:06.318Z,90.20
2018-03-07T04:29:33.805Z,90.20
2018-03-07T04:32:01.707Z,90.00
2018-03-07T04:34:29.203Z,90.00
2018-03-07T04:36:56.699Z,89.80
2018-03-07T04:39:24.215Z,90.20
2018-03-07T04:41:51.720Z,90.20
2018-03-07T04:44:19.215Z,90.20
2018-03-07T04:46:46.702Z,90.10
2018-03-07T04:49:14.195Z,90.10
2018-03-07T04:51:41.684Z,90.10
2018-03-07T04:54:09.184Z,90.00
2018-03-07T04:56:37.091Z,89.90
2018-03-07T04:59:04.581Z,89.90
2018-03-07T05:01:32.067Z,90.00
2018-03-07T05:03:59.979Z,89.90
2018-03-07T05:06:27.473Z,89.90
2018-03-07T05:08:54.967Z,89.90
2018-03-07T05:11:22.454Z,89.90
2018-03-07T05:13:49.948Z,90.00
2018-03-07T05:16:17.446Z,89.90
2018-03-07T05:18:44.968Z,89.90
2018-03-07T05:21:12.458Z,89.90
2018-03-07T05:23:39.951Z,89.80
2018-03-07T05:26:07.447Z,89.80
2018-03-07T05:28:35.348Z,89.90
2018-03-07T05:31:02.831Z,89.90
2018-03-07T05:33:30.323Z,89.90
2018-03-07T05:35:58.218Z,89.90
2018-03-07T05:38:25.707Z,89.90
2018-03-07T05:40:53.211Z,90.00
2018-03-07T05:43:21.082Z,89.90
2018-03-07T05:45:48.564Z,89.90
2018-03-07T05:48:16.060Z,89.90
2018-03-07T05:50:43.575Z,89.80
2018-03-07T05:53:11.066Z,89.90
2018-03-07T05:55:38.572Z,89.90
2018-03-07T05:58:06.448Z,89.90
2018-03-07T06:00:33.955Z,89.90
2018-03-07T06:03:01.457Z,90.00
2018-03-07T06:05:29.346Z,90.00
2018-03-07T06:07:56.844Z,90.00
2018-03-07T06:10:24.338Z,90.00
2018-03-07T06:12:52.227Z,90.00
2018-03-07T06:15:19.731Z,90.00
2018-03-07T06:17:47.221Z,89.90
2018-03-07T06:20:14.738Z,90.10
2018-03-07T06:22:42.224Z,90.10
2018-03-07T06:25:09.727Z,90.10
2018-03-07T06:27:37.228Z,90.00
2018-03-07T06:30:05.110Z,90.10
2018-03-07T06:32:32.623Z,90.10
2018-03-07T06:35:00.128Z,90.10
2018-03-07T06:37:27.626Z,90.10
2018-03-07T06:39:55.142Z,90.30
2018-03-07T06:42:22.667Z,90.30
2018-03-07T06:44:50.162Z,90.40
2018-03-07T06:47:17.667Z,90.50
2018-03-07T06:49:45.178Z,90.40
2018-03-07T06:52:12.687Z,90.30
2018-03-07T06:54:40.199Z,90.20
2018-03-07T06:57:07.727Z,90.10
2018-03-07T06:59:35.224Z,90.10
2018-03-07T07:02:02.723Z,90.10
2018-03-07T07:04:30.231Z,90.00
2018-03-07T07:06:57.728Z,90.00
2018-03-07T07:09:25.235Z,89.80
2018-03-07T07:11:52.775Z,89.70
2018-03-07T07:14:20.680Z,89.40
2018-03-07T07:16:48.186Z,89.40
2018-03-07T07:19:15.710Z,89.40
2018-03-07T07:21:43.215Z,89.30
2018-03-07T07:24:11.126Z,89.00
2018-03-07T07:26:38.618Z,89.00
2018-03-07T07:29:06.142Z,88.60
2018-03-07T07:31:33.639Z,88.50
2018-03-07T07:34:01.195Z,88.40
2018-03-07T07:36:28.715Z,88.30
2018-03-07T07:38:56.211Z,88.30
2018-03-07T07:41:23.712Z,87.90
2018-03-07T07:43:51.216Z,87.70
2018-03-07T07:46:18.721Z,87.30
2018-03-07T07:48:46.237Z,87.30
2018-03-07T07:51:13.740Z,87.10
2018-03-07T07:53:41.231Z,87.00
2018-03-07T07:56:08.736Z,86.70
2018-03-07T07:58:36.257Z,86.40
2018-03-07T08:01:03.755Z,86.30
2018-03-07T08:03:31.661Z,85.40
2018-03-07T08:05:59.200Z,85.40
2018-03-07T08:08:26.708Z,85.30
2018-03-07T08:10:54.203Z,84.90
2018-03-07T08:13:21.712Z,84.70
2018-03-07T08:15:49.231Z,84.40
2018-03-07T08:18:16.814Z,84.00
2018-03-07T08:20:44.292Z,83.50
2018-03-07T08:23:11.791Z,82.70
2018-03-07T08:25:39.342Z,82.20
2018-03-07T08:28:06.856Z,81.60
2018-03-07T08:30:34.367Z,81.40
2018-03-07T08:33:01.859Z,81.00
2018-03-07T08:35:29.355Z,81.10
2018-03-07T08:37:57.252Z,80.70
2018-03-07T08:40:24.755Z,80.70
2018-03-07T08:42:52.267Z,80.60
2018-03-07T08:45:19.761Z,80.10
2018-03-07T08:47:47.256Z,80.50
2018-03-07T08:50:15.153Z,80.10
2018-03-07T08:52:42.639Z,80.10
2018-03-07T08:55:10.147Z,79.90
2018-03-07T08:57:38.036Z,77.90
2018-03-07T09:00:05.547Z,77.90
2018-03-07T09:02:33.083Z,76.90
2018-03-07T09:05:00.582Z,76.00
2018-03-07T09:07:28.476Z,74.50
2018-03-07T09:09:55.967Z,74.50
2018-03-07T09:12:23.480Z,74.60
2018-03-07T09:14:50.967Z,75.10
2018-03-07T09:17:18.496Z,75.10
2018-03-07T09:19:46.000Z,74.30
2018-03-07T09:22:13.498Z,72.60
2018-03-07T09:24:41.408Z,71.50
2018-03-07T09:27:08.907Z,71.50
2018-03-07T09:29:36.797Z,70.20
2018-03-07T09:32:04.340Z,70.20
2018-03-07T09:34:32.234Z,68.70
2018-03-07T09:36:59.740Z,68.70
2018-03-07T09:39:27.263Z,68.60
2018-03-07T09:41:54.770Z,69.10
2018-03-07T09:44:22.667Z,68.80
2018-03-07T09:46:50.175Z,68.80
2018-03-07T09:49:17.672Z,68.90
2018-03-07T09:51:45.184Z,69.90
2018-03-07T09:54:12.698Z,69.20
2018-03-07T09:56:40.255Z,69.50
2018-03-07T09:59:07.716Z,69.60
2018-03-07T10:01:35.220Z,70.20
2018-03-07T10:04:02.737Z,69.90
2018-03-07T10:06:30.239Z,69.80
2018-03-07T10:08:57.755Z,69.30
2018-03-07T10:11:25.252Z,69.00
2018-03-07T10:13:52.761Z,68.90
2018-03-07T10:16:20.273Z,69.00
2018-03-07T10:18:48.188Z,67.70
2018-03-07T10:21:15.689Z,67.70
2018-03-07T10:23:43.218Z,66.80
2018-03-07T10:26:10.710Z,65.40
2018-03-07T10:28:38.213Z,65.00
2018-03-07T10:31:05.726Z,64.30
2018-03-07T10:33:33.239Z,63.90
2018-03-07T10:36:00.732Z,63.30
2018-03-07T10:38:28.217Z,63.00
2018-03-07T10:40:55.711Z,62.40
2018-03-07T10:43:23.199Z,62.40
2018-03-07T10:45:50.696Z,62.20
2018-03-07T10:48:18.583Z,61.70
2018-03-07T10:50:46.147Z,61.70
2018-03-07T10:53:13.669Z,61.50
2018-03-07T10:55:41.672Z,61.00
2018-03-07T10:58:09.200Z,61.00
2018-03-07T11:00:38.892Z,60.60
2018-03-07T11:03:06.407Z,60.60
2018-03-07T11:05:34.616Z,60.50
2018-03-07T11:08:02.226Z,60.60
2018-03-07T11:10:29.728Z,60.50
2018-03-07T11:12:57.234Z,60.10
2018-03-07T11:15:24.756Z,59.70
2018-03-07T11:17:52.247Z,58.80
2018-03-07T11:20:19.875Z,58.70
2018-03-07T11:22:47.818Z,58.30
2018-03-07T11:25:15.327Z,58.30
2018-03-07T11:27:43.030Z,58.20
2018-03-07T11:30:10.576Z,58.40
2018-03-07T11:32:38.073Z,59.10
2018-03-07T11:35:05.580Z,59.40
2018-03-07T11:37:33.081Z,59.80
2018-03-07T11:40:00.583Z,59.10
2018-03-07T11:42:28.088Z,58.10
2018-03-07T11:44:55.604Z,58.20
2018-03-07T11:47:23.091Z,58.10
2018-03-07T11:49:50.599Z,57.90
2018-03-07T11:52:18.488Z,57.80
2018-03-07T11:54:45.983Z,57.80
2018-03-07T11:57:13.484Z,59.10
2018-03-07T11:59:40.967Z,59.10
2018-03-07T12:02:08.466Z,58.10
2018-03-07T12:04:35.967Z,59.20
2018-03-07T12:07:03.517Z,60.20
2018-03-07T12:09:31.031Z,60.30
2018-03-07T12:11:58.540Z,60.30
2018-03-07T12:14:26.062Z,61.30
2018-03-07T12:16:53.664Z,60.30
2018-03-07T12:19:21.198Z,59.30
2018-03-07T12:21:49.089Z,59.00
2018-03-07T12:24:16.587Z,59.00
2018-03-07T12:26:44.089Z,58.60
2018-03-07T12:29:11.571Z,59.60
2018-03-07T12:31:39.099Z,59.30
2018-03-07T12:34:06.591Z,59.00
2018-03-07T12:36:34.092Z,57.90
2018-03-07T12:39:01.986Z,59.30
2018-03-07T12:41:29.491Z,59.30
2018-03-07T12:43:56.990Z,58.80
2018-03-07T12:46:24.889Z,57.20
2018-03-07T12:48:52.414Z,57.20
2018-03-07T12:51:19.903Z,56.90
2018-03-07T12:53:47.417Z,56.10
2018-03-07T12:56:15.305Z,55.50
2018-03-07T12:58:42.806Z,55.50
2018-03-07T13:01:10.319Z,55.60
2018-03-07T13:03:37.815Z,55.80
2018-03-07T13:06:05.299Z,55.50
2018-03-07T13:08:32.824Z,55.50
2018-03-07T13:11:00.316Z,55.60
2018-03-07T13:13:27.828Z,54.90
2018-03-07T13:15:55.514Z,54.70
2018-03-07T13:18:23.060Z,54.00
2018-03-07T13:20:50.580Z,53.90
2018-03-07T13:23:18.094Z,53.70
2018-03-07T13:25:45.606Z,53.50
2018-03-07T13:28:13.114Z,53.00
2018-03-07T13:30:40.609Z,52.80
2018-03-07T13:33:08.182Z,52.60
2018-03-07T13:35:35.718Z,53.00
2018-03-07T13:38:03.613Z,52.10
2018-03-07T13:40:31.351Z,52.10
2018-03-07T13:42:58.866Z,51.60
2018-03-07T13:45:26.357Z,50.70
2018-03-07T13:47:54.243Z,49.60
2018-03-07T13:50:21.732Z,49.70
2018-03-07T13:52:49.239Z,49.80
2018-03-07T13:55:16.748Z,48.90
2018-03-07T13:57:44.253Z,48.30
2018-03-07T14:00:12.138Z,48.50
2018-03-07T14:02:39.686Z,48.50
2018-03-07T14:05:07.369Z,48.90
2018-03-07T14:07:34.860Z,48.90
2018-03-07T14:10:02.373Z,49.30
2018-03-07T14:12:29.928Z,49.80
2018-03-07T14:14:57.419Z,49.60
2018-03-07T14:17:24.917Z,49.50
2018-03-07T14:19:52.795Z,50.10
2018-03-07T14:22:20.682Z,50.80
2018-03-07T14:24:48.211Z,50.80
2018-03-07T14:27:16.116Z,53.00
2018-03-07T14:29:43.671Z,53.00
2018-03-07T14:32:11.170Z,54.10
2018-03-07T14:34:38.665Z,55.30
2018-03-07T14:37:06.327Z,56.20
2018-03-07T14:39:34.231Z,57.30
2018-03-07T14:42:01.743Z,57.30
2018-03-07T14:44:29.645Z,58.70
2018-03-07T14:46:57.153Z,58.60
2018-03-07T14:49:24.652Z,59.40
2018-03-07T14:51:52.154Z,60.00
2018-03-07T14:54:19.658Z,60.40
2018-03-07T14:56:47.148Z,61.10
2018-03-07T14:59:14.644Z,61.10
2018-03-07T15:01:42.546Z,60.90
2018-03-07T15:04:10.079Z,60.90
2018-03-07T15:06:37.959Z,60.80
2018-03-07T15:09:05.459Z,60.80
2018-03-07T15:11:32.958Z,61.20
2018-03-07T15:14:00.455Z,61.10
2018-03-07T15:16:28.959Z,62.70
2018-03-07T15:18:56.472Z,64.70
2018-03-07T15:21:24.016Z,66.70
2018-03-07T15:23:51.959Z,67.70
2018-03-07T15:26:19.487Z,67.70
2018-03-07T15:28:46.992Z,68.10
2018-03-07T15:31:15.001Z,69.20
2018-03-07T15:33:42.492Z,69.20
2018-03-07T15:36:09.985Z,69.60
2018-03-07T15:38:37.535Z,69.70
2018-03-07T15:41:05.452Z,70.90
2018-03-07T15:43:32.964Z,70.90
2018-03-07T15:46:00.510Z,71.60
2018-03-07T15:48:28.000Z,72.50
2018-03-07T15:50:55.520Z,72.80
2018-03-07T15:53:23.039Z,73.10
2018-03-07T15:55:50.538Z,73.50
2018-03-07T15:58:18.438Z,74.10
2018-03-07T16:00:45.930Z,74.10
2018-03-07T16:03:13.536Z,74.70
2018-03-07T16:05:41.516Z,75.40
2018-03-07T16:08:11.920Z,75.40
2018-03-07T16:10:40.275Z,75.40
2018-03-07T16:13:07.793Z,75.10
2018-03-07T16:15:35.307Z,75.00
2018-03-07T16:18:03.214Z,74.60
2018-03-07T16:20:30.712Z,74.60
2018-03-07T16:22:58.218Z,75.00
2018-03-07T16:25:28.131Z,75.20
2018-03-07T16:27:55.628Z,75.70
2018-03-07T16:30:23.127Z,75.90
2018-03-07T16:32:51.011Z,76.30
2018-03-07T16:35:18.581Z,76.40
2018-03-07T16:37:46.107Z,76.60
2018-03-07T16:40:14.041Z,77.10
2018-03-07T16:42:41.594Z,77.10
2018-03-07T16:45:09.083Z,77.20
2018-03-07T16:47:37.055Z,77.60
2018-03-07T16:50:04.600Z,77.60
2018-03-07T16:52:32.539Z,77.70
2018-03-07T16:55:00.164Z,77.70
2018-03-07T16:57:27.675Z,77.90
2018-03-07T16:59:55.233Z,77.90
2018-03-07T17:02:22.866Z,78.20
2018-03-07T17:04:53.328Z,78.40
2018-03-07T17:07:21.361Z,78.50
2018-03-07T17:09:48.905Z,78.50
2018-03-07T17:12:16.507Z,78.50
2018-03-07T17:14:44.079Z,78.70
2018-03-07T17:17:11.725Z,78.80
2018-03-07T17:19:39.376Z,78.80
2018-03-07T17:22:06.855Z,78.80
2018-03-07T17:24:34.439Z,78.90
2018-03-07T17:27:02.520Z,79.10
2018-03-07T17:29:30.031Z,79.10
2018-03-07T17:31:57.533Z,79.30
2018-03-07T17:34:25.024Z,79.40
2018-03-07T17:36:52.519Z,79.50
2018-03-07T17:39:20.069Z,79.50
2018-03-07T17:41:47.978Z,79.70
2018-03-07T17:44:15.504Z,79.70
2018-03-07T17:46:43.397Z,79.70
2018-03-07T17:49:10.895Z,79.70
2018-03-07T17:51:38.387Z,79.80
2018-03-07T17:54:05.889Z,79.70
2018-03-07T17:56:33.382Z,79.80
2018-03-07T17:59:01.863Z,79.90
2018-03-07T18:01:29.762Z,80.10
2018-03-07T18:03:57.639Z,80.10
2018-03-07T18:06:25.159Z,80.10
2018-03-07T18:08:52.716Z,80.40
2018-03-07T18:11:20.215Z,80.30
2018-03-07T18:13:47.752Z,80.60
2018-03-07T18:16:15.652Z,81.20
2018-03-07T18:18:43.206Z,81.20
2018-03-07T18:21:10.719Z,81.60
2018-03-07T18:23:38.239Z,82.00
2018-03-07T18:26:05.735Z,82.40
2018-03-07T18:28:33.229Z,82.90
2018-03-07T18:31:00.752Z,82.90
2018-03-07T18:33:28.238Z,83.70
2018-03-07T18:35:55.766Z,84.10
2018-03-07T18:38:23.280Z,84.30
2018-03-07T18:40:50.788Z,85.00
2018-03-07T18:43:18.281Z,85.10
2018-03-07T18:45:45.776Z,85.70
2018-03-07T18:48:13.259Z,85.90
2018-03-07T18:50:40.747Z,86.10
2018-03-07T18:53:08.246Z,86.50
2018-03-07T18:55:35.735Z,87.00
2018-03-07T18:58:03.673Z,87.80
2018-03-07T19:00:31.169Z,87.80
2018-03-07T19:02:58.746Z,88.30
2018-03-07T19:05:26.241Z,88.90
2018-03-07T19:07:53.737Z,89.60
2018-03-07T19:10:21.690Z,90.70
2018-03-07T19:12:49.631Z,90.80
2018-03-07T19:15:19.081Z,90.80
2018-03-07T19:17:47.028Z,90.50
2018-03-07T19:20:18.432Z,90.70
2018-03-07T19:22:45.954Z,90.70
2018-03-07T19:25:13.863Z,90.80
2018-03-07T19:27:41.351Z,90.80
2018-03-07T19:30:09.128Z,90.90
2018-03-07T19:32:36.701Z,91.10
2018-03-07T19:35:04.612Z,91.20
2018-03-07T19:37:32.195Z,91.20
2018-03-07T19:39:59.681Z,91.30
2018-03-07T19:42:27.584Z,91.80
2018-03-07T19:44:55.079Z,91.80
2018-03-07T19:47:22.602Z,92.00
2018-03-07T19:49:50.107Z,92.10
2018-03-07T19:52:19.488Z,91.70
2018-03-07T19:54:49.591Z,91.70
2018-03-07T19:57:17.164Z,91.30
2018-03-07T19:59:44.679Z,92.00
2018-03-07T20:02:12.212Z,92.40
2018-03-07T20:04:40.110Z,92.50
2018-03-07T20:07:08.588Z,92.50
2018-03-07T20:09:36.108Z,91.70
2018-03-07T20:12:04.009Z,91.60
2018-03-07T20:14:31.500Z,91.60
2018-03-07T20:16:59.052Z,91.00
2018-03-07T20:19:26.639Z,91.10
2018-03-07T20:21:54.147Z,91.10
2018-03-07T20:24:21.669Z,90.90
2018-03-07T20:26:49.579Z,90.80
2018-03-07T20:29:17.078Z,90.80
2018-03-07T20:31:44.608Z,90.90
2018-03-07T20:34:12.126Z,91.00
2018-03-07T20:36:39.626Z,90.90
2018-03-07T20:39:07.121Z,91.10
2018-03-07T20:41:35.042Z,91.10
2018-03-07T20:44:03.140Z,91.10
2018-03-07T20:46:30.653Z,92.00
2018-03-07T20:48:58.164Z,91.90
2018-03-07T20:51:26.091Z,92.10
2018-03-07T20:53:53.611Z,92.10
2018-03-07T20:56:21.551Z,92.10
2018-03-07T20:58:49.067Z,92.10
2018-03-07T21:01:16.624Z,92.00
2018-03-07T21:03:44.781Z,91.90
2018-03-07T21:06:12.343Z,92.10
2018-03-07T21:08:39.851Z,92.30
2018-03-07T21:11:07.348Z,92.50
2018-03-07T21:13:34.856Z,92.40
2018-03-07T21:16:02.405Z,92.50
2018-03-07T21:18:30.736Z,92.60
2018-03-07T21:20:58.242Z,92.60
2018-03-07T21:23:25.744Z,92.50
2018-03-07T21:25:53.351Z,92.70
2018-03-07T21:28:20.863Z,92.50
2018-03-07T21:30:48.921Z,92.80
2018-03-07T21:33:16.824Z,93.10
2018-03-07T21:35:44.324Z,93.10
2018-03-07T21:38:11.848Z,92.80
2018-03-07T21:40:39.405Z,92.50
2018-03-07T21:43:07.256Z,91.90
2018-03-07T21:45:34.757Z,91.90
2018-03-07T21:48:02.259Z,91.60
2018-03-07T21:50:30.164Z,91.00
2018-03-07T21:52:57.678Z,91.00
2018-03-07T21:55:25.586Z,90.20
2018-03-07T21:57:53.084Z,90.20
2018-03-07T22:00:20.623Z,89.70
2018-03-07T22:02:49.192Z,89.90
2018-03-07T22:05:18.506Z,89.20
2018-03-07T22:07:48.496Z,89.40
2018-03-07T22:10:18.019Z,89.00
2018-03-07T22:12:48.093Z,88.70
2018-03-07T22:15:18.425Z,88.60
2018-03-07T22:17:47.725Z,88.30
2018-03-07T22:20:17.216Z,88.10
2018-03-07T22:22:47.150Z,88.20
2018-03-07T22:25:17.425Z,87.90
2018-03-07T22:27:47.703Z,88.00
2018-03-07T22:30:16.798Z,88.00
2018-03-07T22:32:47.836Z,88.00
2018-03-07T22:35:18.640Z,88.10
2018-03-07T22:37:49.123Z,88.10
2018-03-07T22:40:20.116Z,87.70
2018-03-07T22:42:50.606Z,87.70
2018-03-07T22:45:21.743Z,87.30
2018-03-07T22:47:51.549Z,87.50
2018-03-07T22:50:21.494Z,87.20
2018-03-07T22:52:52.801Z,87.10
2018-03-07T22:55:23.645Z,87.30
2018-03-07T22:57:52.160Z,87.30
2018-03-07T23:00:26.205Z,87.50
2018-03-07T23:02:54.724Z,87.40
2018-03-07T23:05:22.261Z,87.70
2018-03-07T23:07:49.807Z,87.60
2018-03-07T23:10:17.377Z,87.70
2018-03-07T23:12:44.868Z,87.70
2018-03-07T23:15:12.411Z,87.80
2018-03-07T23:17:39.911Z,87.90
2018-03-07T23:20:07.431Z,88.00
2018-03-07T23:22:34.933Z,88.20
2018-03-07T23:25:02.424Z,88.10
2018-03-07T23:27:29.952Z,88.20
2018-03-07T23:29:57.444Z,88.40
2018-03-07T23:32:24.946Z,88.70
2018-03-07T23:34:52.850Z,89.10
2018-03-07T23:37:20.348Z,89.10
2018-03-07T23:39:47.852Z,89.30
2018-03-07T23:42:15.367Z,89.50
2018-03-07T23:44:43.304Z,89.80
2018-03-07T23:47:10.808Z,89.80
2018-03-07T23:49:38.693Z,90.00
2018-03-07T23:52:06.199Z,90.00
2018-03-07T23:54:33.694Z,90.10
2018-03-07T23:57:01.661Z,90.40
2018-03-07T23:59:29.587Z,90.50
